Time;durP1;ratioP1;P1;durP2;ratioP2;P2;SDS_P1;SDS_P2;PMS_P1;PMS_P2;Temp;Humidity;BMP_temperature;BMP_pressure;BME280_temperature;BME280_humidity;BME280_pressure;Samples;Min_cycle;Max_cycle;Signal;HPM_P1;HPM_P2
2021/12/12 00:01:49;;;;;;;6.20;4.70;;;2.40;99.90;;;;;;4973669;28;20449;-88
2021/12/12 00:04:19;;;;;;;6.37;4.17;;;2.40;99.90;;;;;;4973816;28;20520;-87
2021/12/12 00:06:53;;;;;;;6.97;4.07;;;2.40;99.90;;;;;;4972807;28;21109;-88
2021/12/12 00:09:24;;;;;;;4.97;4.30;;;2.40;99.90;;;;;;4975180;28;20453;-89
2021/12/12 00:11:53;;;;;;;5.73;3.90;;;2.40;99.90;;;;;;4975620;28;20459;-89
2021/12/12 00:14:25;;;;;;;4.00;3.60;;;2.40;99.90;;;;;;4975322;28;20459;-88
2021/12/12 00:16:53;;;;;;;4.63;3.83;;;2.50;99.90;;;;;;4974782;28;20450;-91
2021/12/12 00:19:21;;;;;;;6.50;4.07;;;;;;;;;;4969040;28;20498;-89
2021/12/12 00:21:52;;;;;;;5.87;4.30;;;2.50;99.90;;;;;;4973128;28;20473;-89
2021/12/12 00:24:20;;;;;;;4.60;3.90;;;;;;;;;;4974023;28;21033;-89
2021/12/12 00:26:50;;;;;;;7.23;4.40;;;2.50;99.90;;;;;;4973978;28;20455;-90
2021/12/12 00:29:21;;;;;;;5.03;4.13;;;2.50;99.90;;;;;;4973753;28;20462;-89
2021/12/12 00:31:56;;;;;;;4.00;3.60;;;2.50;99.90;;;;;;4973772;28;20893;-89
2021/12/12 00:34:26;;;;;;;6.23;4.53;;;2.50;99.90;;;;;;4974035;28;20449;-89
2021/12/12 00:36:53;;;;;;;5.07;4.13;;;;;;;;;;4973111;28;20800;-89
2021/12/12 00:39:23;;;;;;;5.20;4.20;;;2.50;99.90;;;;;;4973819;28;20509;-90
2021/12/12 00:41:54;;;;;;;5.13;4.40;;;2.50;99.90;;;;;;4972539;28;20790;-90
2021/12/12 00:44:24;;;;;;;5.73;4.27;;;2.60;99.90;;;;;;4974521;28;20982;-88
2021/12/12 00:46:55;;;;;;;5.27;4.07;;;2.60;99.90;;;;;;4977716;28;20450;-91
2021/12/12 00:49:22;;;;;;;6.07;4.90;;;;;;;;;;4977696;28;20446;-89
2021/12/12 00:51:51;;;;;;;4.40;3.93;;;2.60;99.90;;;;;;4976510;28;20457;-91
2021/12/12 00:54:19;;;;;;;8.13;4.13;;;2.60;99.90;;;;;;4977641;28;20443;-86
2021/12/12 00:56:46;;;;;;;7.23;4.50;;;;;;;;;;4977259;28;20454;-88
2021/12/12 00:59:14;;;;;;;5.83;3.93;;;2.60;99.90;;;;;;4984741;28;20486;-88
2021/12/12 01:01:47;;;;;;;5.10;4.40;;;2.50;99.90;;;;;;5001873;28;20438;-87
2021/12/12 01:04:17;;;;;;;9.70;4.73;;;2.50;99.90;;;;;;4979519;28;20442;-87
2021/12/12 01:06:44;;;;;;;6.53;5.00;;;;;;;;;;4973314;28;20446;-87
2021/12/12 01:09:19;;;;;;;5.57;4.40;;;2.50;99.90;;;;;;4976870;28;20949;-87
2021/12/12 01:11:49;;;;;;;7.17;3.97;;;2.50;99.90;;;;;;4977073;28;20808;-88
2021/12/12 01:14:32;;;;;;;4.60;3.90;;;2.50;99.90;;;;;;4977070;28;20528;-88
2021/12/12 01:17:07;;;;;;;6.33;5.23;;;2.50;99.90;;;;;;4976942;28;20466;-90
2021/12/12 01:19:43;;;;;;;6.30;5.37;;;2.50;99.90;;;;;;4972617;28;20501;-89
2021/12/12 01:22:15;;;;;;;5.77;4.17;;;2.50;99.90;;;;;;4975894;28;20502;-89
2021/12/12 01:24:46;;;;;;;6.70;4.70;;;2.50;99.90;;;;;;4973629;28;20451;-89
2021/12/12 01:27:16;;;;;;;6.33;4.67;;;2.50;99.90;;;;;;4973999;28;20474;-89
2021/12/12 01:29:44;;;;;;;5.13;4.60;;;;;;;;;;4976718;28;20451;-87
2021/12/12 01:32:23;;;;;;;7.00;4.80;;;2.40;99.90;;;;;;4976862;28;20447;-90
2021/12/12 01:34:58;;;;;;;6.47;4.60;;;2.40;99.90;;;;;;4973552;28;20985;-91
2021/12/12 01:37:37;;;;;;;6.60;4.63;;;2.40;99.90;;;;;;4971873;28;20454;-90
2021/12/12 01:40:26;;;;;;;9.10;5.40;;;2.40;99.90;;;;;;4975032;28;20540;-91
2021/12/12 01:43:01;;;;;;;7.00;5.50;;;2.40;99.90;;;;;;4961686;28;20509;-90
2021/12/12 01:45:33;;;;;;;6.70;4.87;;;2.40;99.90;;;;;;4974123;28;20487;-90
2021/12/12 01:48:09;;;;;;;7.40;5.60;;;2.50;99.90;;;;;;4976901;28;20462;-88
2021/12/12 01:50:39;;;;;;;7.23;5.50;;;2.50;99.90;;;;;;4975687;28;20445;-88
2021/12/12 01:53:12;;;;;;;6.30;4.90;;;2.50;99.90;;;;;;4972334;28;20821;-91
2021/12/12 01:55:43;;;;;;;9.13;5.50;;;;;;;;;;4976376;28;20451;-91
2021/12/12 01:58:19;;;;;;;6.40;4.90;;;2.40;99.90;;;;;;4976315;28;20458;-88
2021/12/12 02:00:51;;;;;;;6.10;5.30;;;2.50;99.90;;;;;;4976170;28;20502;-88
2021/12/12 02:03:35;;;;;;;8.03;5.00;;;2.50;99.90;;;;;;4976187;28;20914;-90
2021/12/12 02:06:06;;;;;;;8.70;5.83;;;2.50;99.90;;;;;;4971754;28;20454;-91
2021/12/12 02:08:34;;;;;;;7.80;5.03;;;;;;;;;;4975886;28;20502;-90
2021/12/12 02:11:04;;;;;;;6.90;5.03;;;2.50;99.90;;;;;;4973139;28;20990;-89
2021/12/12 02:13:36;;;;;;;7.57;5.07;;;2.50;99.90;;;;;;4973902;28;20830;-88
2021/12/12 02:16:07;;;;;;;6.10;5.10;;;;;;;;;;4971943;28;20454;-88
2021/12/12 02:18:39;;;;;;;4.90;4.40;;;2.50;99.90;;;;;;4975989;28;20455;-87
2021/12/12 02:21:21;;;;;;;5.70;4.70;;;2.50;99.90;;;;;;4974967;28;20486;-91
2021/12/12 02:35:41;;;;;;;6.50;4.70;;;;;;;;;;4975084;28;20945;-89
2021/12/12 02:38:09;;;;;;;7.73;5.07;;;;;;;;;;4958596;28;20438;-89
2021/12/12 02:40:44;;;;;;;6.50;4.57;;;2.40;99.90;;;;;;4975812;28;20502;-90
2021/12/12 02:43:16;;;;;;;6.93;3.87;;;2.40;99.90;;;;;;4973874;28;20881;-91
2021/12/12 02:45:45;;;;;;;6.80;4.10;;;2.40;99.90;;;;;;4970856;28;20458;-89
2021/12/12 02:48:17;;;;;;;4.80;3.73;;;;;;;;;;4975778;28;20454;-88
2021/12/12 02:50:47;;;;;;;7.27;4.43;;;2.40;99.90;;;;;;4974508;28;20466;-88
2021/12/12 02:53:17;;;;;;;7.57;4.53;;;2.50;99.90;;;;;;4975508;28;20463;-89
2021/12/12 02:55:50;;;;;;;5.53;4.47;;;;;;;;;;4975398;28;20464;-91
2021/12/12 02:58:23;;;;;;;5.97;4.17;;;2.40;99.90;;;;;;4975155;28;20462;-89
2021/12/12 03:01:08;;;;;;;4.90;4.23;;;2.50;99.90;;;;;;4974956;28;21002;-88
2021/12/12 03:03:38;;;;;;;6.63;4.60;;;2.30;99.90;;;;;;4975131;28;20461;-89
2021/12/12 03:06:06;;;;;;;4.90;4.10;;;2.30;99.90;;;;;;4974152;28;20477;-91
2021/12/12 03:08:34;;;;;;;5.50;4.37;;;;;;;;;;4975152;28;20461;-89
2021/12/12 03:11:12;;;;;;;6.30;3.63;;;2.10;99.90;;;;;;4975274;28;20461;-89
2021/12/12 03:13:41;;;;;;;5.60;4.27;;;2.00;99.90;;;;;;4975063;28;20470;-88
2021/12/12 03:16:11;;;;;;;5.03;4.03;;;2.00;99.90;;;;;;4975866;28;20451;-88
2021/12/12 03:18:41;;;;;;;5.40;3.60;;;1.80;99.90;;;;;;4974642;28;20451;-88
2021/12/12 03:21:15;;;;;;;4.70;4.20;;;1.70;99.90;;;;;;4976475;28;20494;-90
2021/12/12 03:23:44;;;;;;;6.20;4.20;;;1.50;99.90;;;;;;4978459;28;20993;-87
2021/12/12 03:26:13;;;;;;;4.10;3.43;;;1.40;99.90;;;;;;4976485;28;20477;-89
2021/12/12 03:28:43;;;;;;;6.93;4.43;;;1.30;99.90;;;;;;4972027;28;20993;-90
2021/12/12 03:31:14;;;;;;;5.70;3.83;;;1.30;99.90;;;;;;4972063;28;20523;-89
2021/12/12 03:33:41;;;;;;;6.87;4.70;;;;;;;;;;4970128;28;20455;-90
2021/12/12 03:36:11;;;;;;;6.40;4.20;;;1.10;99.90;;;;;;4974282;28;20454;-89
2021/12/12 03:38:42;;;;;;;8.67;4.40;;;1.00;99.90;;;;;;4975099;28;20458;-90
2021/12/12 03:41:14;;;;;;;8.50;4.23;;;0.90;99.90;;;;;;4973906;28;20502;-91
2021/12/12 03:43:42;;;;;;;4.63;4.10;;;;;;;;;;4995742;28;20462;-90
2021/12/12 03:46:11;;;;;;;5.20;4.70;;;0.80;99.90;;;;;;4981507;28;20462;-89
2021/12/12 03:48:42;;;;;;;9.23;4.27;;;0.80;99.90;;;;;;4974938;28;20465;-90
2021/12/12 03:51:13;;;;;;;5.00;4.20;;;0.90;99.90;;;;;;4974089;28;20993;-89
2021/12/12 03:53:40;;;;;;;6.67;4.40;;;0.90;99.90;;;;;;4974519;28;20450;-89
2021/12/12 03:56:10;;;;;;;7.03;4.37;;;0.80;99.90;;;;;;4974523;28;20457;-89
2021/12/12 03:58:38;;;;;;;5.90;4.90;;;;;;;;;;4974574;28;20446;-89
2021/12/12 04:01:11;;;;;;;5.97;4.63;;;0.70;99.90;;;;;;4964598;28;20491;-91
2021/12/12 04:03:40;;;;;;;6.13;4.00;;;0.70;99.90;;;;;;4973978;28;20447;-90
2021/12/12 04:06:13;;;;;;;6.43;3.73;;;0.70;99.90;;;;;;4972464;28;20490;-88
2021/12/12 04:08:42;;;;;;;4.43;4.03;;;0.60;99.90;;;;;;4969266;28;20435;-90
2021/12/12 04:11:15;;;;;;;9.33;3.90;;;0.60;99.90;;;;;;4970810;28;20458;-88
2021/12/12 04:13:49;;;;;;;4.10;3.63;;;0.50;99.90;;;;;;4969799;28;20447;-88
2021/12/12 04:16:16;;;;;;;4.83;4.30;;;0.40;99.90;;;;;;4971747;28;20442;-89
2021/12/12 04:18:44;;;;;;;4.67;3.70;;;;;;;;;;4970067;28;20450;-88
2021/12/12 04:21:14;;;;;;;5.70;3.23;;;0.30;99.90;;;;;;4973303;28;20478;-87
2021/12/12 04:23:42;;;;;;;8.00;4.30;;;;;;;;;;4972252;28;20458;-87
2021/12/12 04:26:12;;;;;;;4.70;3.27;;;;;;;;;;4977513;28;20443;-89
2021/12/12 04:28:39;;;;;;;7.60;4.90;;;;;;;;;;4977550;28;20447;-88
2021/12/12 04:31:08;;;;;;;9.30;4.70;;;;;;;;;;4977453;28;20884;-90
2021/12/12 04:33:35;;;;;;;9.50;3.87;;;;;;;;;;4975157;28;20454;-90
2021/12/12 04:36:02;;;;;;;5.80;4.47;;;;;;;;;;4976459;28;20674;-90
2021/12/12 04:38:29;;;;;;;7.83;4.20;;;;;;;;;;4977682;28;20450;-89
2021/12/12 04:40:56;;;;;;;6.20;4.33;;;;;;;;;;4977949;28;20505;-90
2021/12/12 04:43:24;;;;;;;9.27;4.20;;;;;;;;;;4977772;28;20479;-90
2021/12/12 04:46:06;;;;;;;3.87;3.13;;;-0.20;99.90;;;;;;4978185;28;20454;-89
2021/12/12 04:51:37;;;;;;;7.93;3.63;;;-0.20;99.90;;;;;;4977440;28;20450;-88
2021/12/12 04:54:13;;;;;;;5.87;3.90;;;-0.20;99.90;;;;;;4973430;28;20465;-89
2021/12/12 04:56:50;;;;;;;4.67;3.63;;;-0.20;99.90;;;;;;4978816;28;20531;-89
2021/12/12 04:59:20;;;;;;;6.93;3.47;;;-0.20;99.90;;;;;;4978257;28;20454;-88
2021/12/12 05:01:54;;;;;;;10.10;3.70;;;-0.20;99.90;;;;;;4977557;28;20494;-87
2021/12/12 05:04:28;;;;;;;5.63;3.50;;;-0.20;99.90;;;;;;4978331;28;20446;-89
2021/12/12 05:06:59;;;;;;;4.70;3.60;;;-0.10;99.90;;;;;;4977017;28;20946;-90
2021/12/12 05:09:30;;;;;;;6.87;3.57;;;-0.20;99.90;;;;;;4977850;28;20461;-89
2021/12/12 05:12:03;;;;;;;6.43;4.40;;;-0.10;99.90;;;;;;4971226;28;20455;-89
2021/12/12 05:14:35;;;;;;;4.10;3.40;;;-0.10;99.90;;;;;;4974642;28;20458;-89
2021/12/12 05:17:07;;;;;;;4.90;3.63;;;0.00;99.90;;;;;;4974974;28;20484;-89
2021/12/12 05:19:37;;;;;;;4.90;3.90;;;0.00;99.90;;;;;;4977875;28;20451;-89
2021/12/12 05:22:09;;;;;;;5.40;3.90;;;0.00;99.90;;;;;;4971430;28;20955;-89
2021/12/12 05:24:38;;;;;;;5.60;3.70;;;0.00;99.90;;;;;;4977728;28;20450;-88
2021/12/12 05:27:09;;;;;;;5.23;3.40;;;0.20;99.90;;;;;;4977944;28;20450;-91
2021/12/12 05:29:40;;;;;;;5.30;3.60;;;0.30;99.90;;;;;;4976507;28;20451;-90
2021/12/12 05:32:09;;;;;;;7.20;3.70;;;0.30;99.90;;;;;;4974721;28;20497;-88
2021/12/12 05:34:40;;;;;;;4.67;2.90;;;0.30;99.90;;;;;;4977380;28;20455;-88
2021/12/12 05:37:10;;;;;;;8.40;3.87;;;0.30;99.90;;;;;;4977180;28;20435;-87
2021/12/12 05:39:37;;;;;;;4.60;3.57;;;;;;;;;;4977410;28;20455;-90
2021/12/12 05:42:05;;;;;;;6.07;4.07;;;;;;;;;;4977411;28;20475;-88
2021/12/12 05:44:32;;;;;;;6.57;3.50;;;0.50;99.90;;;;;;4977146;28;20509;-88
2021/12/12 05:47:01;;;;;;;4.33;3.63;;;0.60;99.90;;;;;;4977325;28;20469;-91
2021/12/12 05:49:29;;;;;;;7.33;4.00;;;;;;;;;;4977192;28;20451;-90
2021/12/12 05:51:57;;;;;;;5.13;3.30;;;;;;;;;;4972976;28;20462;-90
2021/12/12 05:54:24;;;;;;;6.40;3.03;;;;;;;;;;4977291;28;20458;-88
2021/12/12 05:56:52;;;;;;;5.30;4.07;;;0.60;99.90;;;;;;4977155;28;20793;-90
2021/12/12 05:59:21;;;;;;;7.13;4.33;;;0.60;99.90;;;;;;4973998;28;20461;-89
2021/12/12 06:01:48;;;;;;;6.27;3.90;;;;;;;;;;4976900;28;20495;-90
2021/12/12 06:04:18;;;;;;;4.47;3.93;;;0.50;99.90;;;;;;4977595;28;20458;-91
2021/12/12 06:06:46;;;;;;;4.30;3.53;;;0.50;99.90;;;;;;4972398;28;20524;-90
2021/12/12 06:09:16;;;;;;;8.17;4.70;;;0.50;99.90;;;;;;4977086;28;20484;-90
2021/12/12 06:11:45;;;;;;;5.00;3.90;;;0.30;99.90;;;;;;4973473;28;20951;-90
2021/12/12 06:14:13;;;;;;;5.70;3.80;;;0.30;99.90;;;;;;4976945;28;20450;-90
2021/12/12 06:16:41;;;;;;;4.60;3.50;;;0.30;99.90;;;;;;4976354;28;20958;-89
2021/12/12 06:19:12;;;;;;;5.40;3.53;;;0.10;99.90;;;;;;4983073;28;20966;-89
2021/12/12 06:21:39;;;;;;;5.90;3.67;;;0.40;99.90;;;;;;4994402;28;20494;-89
2021/12/12 06:24:07;;;;;;;5.10;4.00;;;;;;;;;;4978231;28;20459;-89
2021/12/12 06:26:37;;;;;;;5.70;4.33;;;0.20;99.90;;;;;;4978185;28;20459;-90
2021/12/12 06:29:05;;;;;;;6.67;3.87;;;;;;;;;;4979453;28;20458;-89
2021/12/12 06:31:32;;;;;;;10.37;4.83;;;;;;;;;;4979440;28;20478;-90
2021/12/12 06:33:59;;;;;;;4.20;3.80;;;;;;;;;;4980433;28;20457;-88
2021/12/12 06:36:27;;;;;;;8.50;4.43;;;;;;;;;;4975441;28;20815;-90
2021/12/12 06:38:56;;;;;;;6.10;3.90;;;0.30;99.90;;;;;;4972887;28;20454;-89
2021/12/12 06:41:23;;;;;;;9.83;5.03;;;0.20;99.90;;;;;;4975873;28;20502;-88
2021/12/12 06:43:53;;;;;;;11.10;6.63;;;0.20;99.90;;;;;;4976700;28;20462;-89
2021/12/12 06:46:21;;;;;;;12.63;8.23;;;0.20;99.90;;;;;;4973469;28;20795;-90
2021/12/12 06:48:48;;;;;;;11.60;7.47;;;;;;;;;;4975915;28;20450;-90
2021/12/12 06:51:16;;;;;;;11.97;7.23;;;;;;;;;;4971947;28;20866;-89
2021/12/12 06:53:45;;;;;;;9.70;7.07;;;0.20;99.90;;;;;;4975969;28;20461;-90
2021/12/12 06:56:17;;;;;;;12.20;7.80;;;0.20;99.90;;;;;;4976186;28;20439;-91
2021/12/12 06:58:45;;;;;;;11.60;7.20;;;;;;;;;;4971755;28;20442;-90
2021/12/12 07:01:17;;;;;;;7.20;4.80;;;0.20;99.90;;;;;;4973049;28;20498;-90
2021/12/12 07:03:45;;;;;;;8.20;5.40;;;;;;;;;;4975751;28;20465;-91
2021/12/12 07:06:12;;;;;;;8.73;4.77;;;;;;;;;;4975374;28;20446;-90
2021/12/12 07:08:40;;;;;;;7.27;5.07;;;0.20;99.90;;;;;;4976247;28;20457;-90
2021/12/12 07:11:08;;;;;;;7.87;5.70;;;0.20;99.90;;;;;;4976017;28;20453;-91
2021/12/12 07:13:35;;;;;;;10.03;5.80;;;;;;;;;;4976588;28;20443;-93
2021/12/12 07:16:05;;;;;;;9.77;6.30;;;0.20;99.90;;;;;;4973188;28;20455;-92
2021/12/12 07:18:35;;;;;;;7.70;4.93;;;0.30;99.90;;;;;;4975392;28;20455;-89
2021/12/12 07:21:06;;;;;;;4.57;3.60;;;0.30;99.90;;;;;;4974989;28;20479;-91
2021/12/12 07:23:35;;;;;;;7.83;5.40;;;0.40;99.90;;;;;;4977129;28;20462;-90
2021/12/12 07:26:05;;;;;;;6.60;4.80;;;0.50;99.90;;;;;;4975254;28;20467;-89
2021/12/12 07:28:33;;;;;;;4.90;3.47;;;0.60;99.90;;;;;;4975229;28;20435;-89
2021/12/12 07:31:03;;;;;;;4.87;4.00;;;0.60;99.90;;;;;;4970150;28;20501;-88
2021/12/12 07:33:31;;;;;;;3.97;2.90;;;0.60;99.90;;;;;;4973718;28;20439;-89
2021/12/12 07:36:01;;;;;;;5.17;3.77;;;0.60;99.90;;;;;;4976055;28;20446;-91
2021/12/12 07:38:30;;;;;;;8.60;3.70;;;0.70;99.90;;;;;;4974928;28;20938;-89
2021/12/12 07:40:58;;;;;;;3.70;2.73;;;0.80;99.90;;;;;;4975497;28;20509;-89
2021/12/12 07:43:27;;;;;;;5.57;2.80;;;0.80;99.90;;;;;;4971467;28;20819;-90
2021/12/12 07:45:54;;;;;;;4.40;3.20;;;;;;;;;;4974976;28;20942;-91
2021/12/12 07:48:22;;;;;;;4.70;3.40;;;;;;;;;;4972528;28;20823;-90
2021/12/12 07:50:49;;;;;;;3.87;2.30;;;;;;;;;;4975538;28;20459;-90
2021/12/12 07:53:18;;;;;;;3.80;1.90;;;0.90;99.90;;;;;;4974775;28;20455;-90
2021/12/12 07:56:00;;;;;;;2.97;2.30;;;1.00;99.90;;;;;;4972097;28;20447;-90
2021/12/12 07:58:28;;;;;;;2.83;2.20;;;1.10;99.90;;;;;;4975374;28;21075;-90
2021/12/12 08:00:59;;;;;;;3.70;2.20;;;1.20;99.90;;;;;;4971738;28;20475;-89
2021/12/12 08:03:29;;;;;;;3.80;2.43;;;1.30;99.90;;;;;;4976165;28;20455;-91
2021/12/12 08:05:59;;;;;;;1.30;1.03;;;1.40;99.90;;;;;;4974587;28;20458;-90
2021/12/12 08:08:44;;;;;;;2.50;1.40;;;1.50;99.90;;;;;;4975164;28;20850;-90
2021/12/12 08:11:16;;;;;;;1.93;1.40;;;1.70;99.90;;;;;;4968808;28;20463;-91
2021/12/12 08:13:47;;;;;;;4.03;2.43;;;;;;;;;;4974614;28;20502;-89
2021/12/12 08:16:15;;;;;;;5.93;2.27;;;;;;;;;;4975798;28;20446;-91
2021/12/12 08:18:43;;;;;;;1.73;1.33;;;2.30;99.90;;;;;;4975818;28;20559;-90
2021/12/12 08:21:13;;;;;;;0.83;0.80;;;2.50;99.90;;;;;;4973033;28;20474;-91
2021/12/12 08:23:43;;;;;;;3.10;2.43;;;;;;;;;;4980730;28;20563;-90
2021/12/12 08:26:12;;;;;;;2.10;1.57;;;;;;;;;;4972681;28;20447;-89
2021/12/12 08:28:43;;;;;;;2.07;1.30;;;2.10;99.90;;;;;;4978115;28;20446;-89
2021/12/12 08:31:12;;;;;;;2.40;1.80;;;2.10;99.90;;;;;;4976432;28;20530;-92
2021/12/12 08:33:39;;;;;;;2.07;1.10;;;;;;;;;;4972524;28;20439;-88
2021/12/12 08:36:07;;;;;;;3.30;2.00;;;;;;;;;;4974375;28;20451;-88
2021/12/12 08:38:34;;;;;;;3.13;1.43;;;;;;;;;;4976838;28;20451;-88
2021/12/12 08:41:03;;;;;;;1.13;1.03;;;2.00;99.90;;;;;;4975138;28;20502;-90
2021/12/12 08:43:32;;;;;;;1.60;1.07;;;1.90;99.90;;;;;;4975567;28;20455;-88
2021/12/12 08:46:04;;;;;;;1.53;0.97;;;1.90;99.90;;;;;;4973596;28;20518;-88
2021/12/12 08:48:33;;;;;;;2.20;1.33;;;2.20;99.90;;;;;;4976553;28;20487;-87
2021/12/12 08:51:04;;;;;;;2.13;1.33;;;2.10;99.90;;;;;;4972832;28;20493;-91
2021/12/12 08:53:31;;;;;;;1.60;1.37;;;;;;;;;;4978060;28;20454;-88
2021/12/12 08:56:00;;;;;;;2.00;1.80;;;;;;;;;;4986932;28;20442;-88
2021/12/12 08:58:33;;;;;;;2.03;1.53;;;2.00;99.90;;;;;;4998094;28;20446;-89
2021/12/12 09:01:02;;;;;;;3.17;1.50;;;1.90;99.90;;;;;;4979896;28;20435;-87
2021/12/12 09:03:36;;;;;;;1.07;0.87;;;2.00;99.90;;;;;;4977403;28;20458;-90
2021/12/12 09:06:03;;;;;;;1.90;1.00;;;;;;;;;;4978723;28;20461;-88
2021/12/12 09:08:42;;;;;;;2.27;1.47;;;2.10;99.90;;;;;;4980782;28;20470;-85
2021/12/12 09:11:14;;;;;;;17.57;12.30;;;2.00;99.90;;;;;;4982694;28;20458;-89
2021/12/12 09:13:48;;;;;;;3.70;2.20;;;2.30;99.90;;;;;;4982743;28;20462;-89
2021/12/12 09:16:24;;;;;;;5.70;3.63;;;2.30;99.90;;;;;;4972922;28;20514;-87
2021/12/12 09:18:57;;;;;;;7.93;4.83;;;2.30;99.90;;;;;;4978702;28;20443;-88
2021/12/12 09:21:28;;;;;;;2.53;1.90;;;2.40;99.90;;;;;;4977813;28;20509;-89
2021/12/12 09:24:10;;;;;;;1.30;1.00;;;2.30;99.90;;;;;;4978427;28;20443;-90
2021/12/12 09:26:40;;;;;;;10.63;6.57;;;2.40;99.90;;;;;;4980490;28;20454;-88
2021/12/12 09:29:19;;;;;;;12.03;7.20;;;2.40;99.90;;;;;;4978352;28;20443;-88
2021/12/12 09:31:52;;;;;;;1.50;1.40;;;2.40;99.90;;;;;;4978066;28;20478;-91
2021/12/12 09:34:26;;;;;;;10.20;5.03;;;2.40;99.90;;;;;;4976176;28;20533;-88
2021/12/12 09:36:56;;;;;;;1.20;1.00;;;2.50;99.90;;;;;;4979420;28;20502;-87
2021/12/12 09:39:28;;;;;;;8.70;2.50;;;2.50;99.90;;;;;;4982183;28;20453;-87
2021/12/12 09:42:23;;;;;;;4.27;2.27;;;2.80;99.90;;;;;;4981967;28;21147;-86
2021/12/12 09:45:24;;;;;;;3.27;2.10;;;2.80;99.90;;;;;;4978316;28;20450;-86
2021/12/12 09:51:14;;;;;;;1.63;1.53;;;3.00;99.90;;;;;;4978335;28;20477;-90
2021/12/12 09:51:17;;;;;;;2.30;1.67;;;3.00;99.90;;;;;;4974040;28;20449;-90
2021/12/12 09:54:05;;;;;;;2.50;0.80;;;3.10;99.90;;;;;;4975189;28;20465;-91
2021/12/12 09:56:40;;;;;;;1.83;1.63;;;3.20;99.90;;;;;;4978257;28;20540;-90
2021/12/12 09:59:17;;;;;;;2.47;1.87;;;3.50;99.90;;;;;;4977278;28;20469;-92
2021/12/12 10:01:58;;;;;;;1.43;0.90;;;3.70;99.90;;;;;;4976202;28;20497;-86
2021/12/12 10:04:30;;;;;;;7.03;0.90;;;3.60;99.90;;;;;;4976270;28;20817;-86
2021/12/12 10:07:04;;;;;;;0.70;0.70;;;3.40;99.90;;;;;;4972820;28;20455;-87
2021/12/12 10:09:38;;;;;;;1.30;1.20;;;3.30;99.90;;;;;;4976617;28;20457;-86
2021/12/12 10:12:10;;;;;;;1.60;1.27;;;3.20;99.90;;;;;;4976456;28;20459;-87
2021/12/12 10:14:45;;;;;;;1.67;1.50;;;3.20;99.90;;;;;;4942383;28;20493;-86
2021/12/12 10:17:17;;;;;;;2.30;1.40;;;3.20;99.90;;;;;;4973405;28;20454;-91
2021/12/12 10:19:51;;;;;;;1.40;0.90;;;3.20;99.90;;;;;;4973395;28;20447;-88
2021/12/12 10:22:28;;;;;;;1.60;1.03;;;3.20;99.90;;;;;;4972968;28;20498;-86
2021/12/12 10:25:02;;;;;;;1.53;0.97;;;3.30;99.90;;;;;;4972339;28;20450;-86
2021/12/12 10:27:35;;;;;;;0.97;0.90;;;3.10;99.90;;;;;;4971836;28;20458;-87
2021/12/12 10:30:15;;;;;;;2.70;1.20;;;3.30;99.90;;;;;;4974582;28;20477;-87
2021/12/12 10:33:05;;;;;;;1.10;0.80;;;3.30;99.90;;;;;;4976443;28;20470;-87
2021/12/12 10:35:37;;;;;;;2.20;1.40;;;3.40;99.90;;;;;;4979963;28;20454;-90
2021/12/12 10:38:09;;;;;;;1.90;1.27;;;3.40;99.90;;;;;;4975955;28;20454;-89
2021/12/12 10:40:40;;;;;;;1.40;1.30;;;3.40;99.90;;;;;;4975639;28;20943;-88
2021/12/12 10:43:12;;;;;;;0.97;0.70;;;3.50;99.90;;;;;;4972805;28;20502;-88
2021/12/12 10:45:49;;;;;;;0.97;0.73;;;3.40;99.90;;;;;;4972379;28;20474;-89
2021/12/12 10:48:19;;;;;;;1.67;1.40;;;3.50;99.90;;;;;;4975343;28;20493;-89
2021/12/12 10:50:56;;;;;;;2.10;1.07;;;3.60;99.90;;;;;;4975079;28;20447;-91
2021/12/12 10:53:30;;;;;;;0.97;0.90;;;3.70;99.90;;;;;;4981117;28;20464;-90
2021/12/12 10:56:02;;;;;;;0.70;0.57;;;3.80;99.90;;;;;;4984396;28;20488;-91
2021/12/12 10:58:36;;;;;;;1.90;1.50;;;3.80;99.90;;;;;;4991123;28;20926;-92
2021/12/12 11:01:10;;;;;;;3.73;2.30;;;4.00;99.90;;;;;;4966820;28;20447;-92
2021/12/12 11:03:47;;;;;;;1.30;1.10;;;3.70;99.90;;;;;;4972826;28;20548;-91
2021/12/12 11:06:18;;;;;;;1.10;0.80;;;4.00;99.90;;;;;;4974183;28;20473;-90
2021/12/12 11:08:52;;;;;;;0.50;0.50;;;4.20;99.90;;;;;;4975373;28;20465;-90
2021/12/12 11:11:24;;;;;;;2.43;1.23;;;4.20;99.90;;;;;;4975792;28;20461;-92
2021/12/12 11:13:59;;;;;;;1.37;1.27;;;4.30;99.90;;;;;;4978470;28;20454;-91
2021/12/12 11:16:30;;;;;;;1.80;1.50;;;4.40;99.90;;;;;;4994013;28;20446;-93
2021/12/12 11:19:17;;;;;;;1.40;0.83;;;4.90;99.90;;;;;;4995963;28;20461;-91
2021/12/12 11:21:47;;;;;;;1.23;1.13;;;4.60;99.90;;;;;;4990543;28;20486;-89
2021/12/12 11:24:20;;;;;;;1.50;1.30;;;4.50;99.90;;;;;;4996590;28;20453;-91
2021/12/12 11:26:53;;;;;;;3.60;1.43;;;4.40;99.90;;;;;;4996849;28;20450;-90
2021/12/12 11:29:27;;;;;;;1.97;1.67;;;4.30;99.90;;;;;;4992713;28;21004;-89
2021/12/12 11:31:58;;;;;;;4.47;3.20;;;4.30;99.90;;;;;;4990148;28;20491;-89
2021/12/12 11:34:28;;;;;;;1.30;1.10;;;4.30;99.90;;;;;;4993971;28;20450;-89
2021/12/12 11:37:08;;;;;;;2.23;1.77;;;4.70;99.90;;;;;;4993029;28;20437;-89
2021/12/12 11:39:41;;;;;;;4.70;3.27;;;4.50;99.90;;;;;;4993605;28;20445;-91
2021/12/12 11:42:16;;;;;;;4.60;3.47;;;4.60;99.90;;;;;;4974310;28;20581;-89
2021/12/12 11:44:53;;;;;;;2.30;2.03;;;4.60;99.90;;;;;;4979246;28;20453;-88
2021/12/12 11:47:41;;;;;;;6.93;3.73;;;4.50;99.90;;;;;;4974924;28;20478;-87
2021/12/12 11:50:15;;;;;;;1.23;1.07;;;4.70;99.90;;;;;;4970514;28;20450;-87
2021/12/12 11:52:51;;;;;;;1.00;0.80;;;4.40;99.90;;;;;;4971031;28;20449;-87
2021/12/12 11:55:25;;;;;;;0.87;0.70;;;4.40;99.90;;;;;;4971562;28;20509;-86
2021/12/12 11:57:59;;;;;;;4.13;1.90;;;4.60;99.90;;;;;;4974054;28;20515;-88
2021/12/12 12:00:36;;;;;;;2.77;2.47;;;4.60;99.90;;;;;;4978622;28;20860;-88
2021/12/12 12:03:27;;;;;;;2.10;1.70;;;4.60;99.90;;;;;;4972183;28;20942;-89
2021/12/12 12:06:03;;;;;;;2.43;1.07;;;4.60;99.90;;;;;;4974927;28;20474;-87
2021/12/12 12:08:46;;;;;;;2.03;1.43;;;4.70;99.90;;;;;;4969535;28;20821;-88
2021/12/12 12:11:27;;;;;;;0.73;0.73;;;4.80;99.90;;;;;;4972321;28;20502;-89
2021/12/12 12:13:56;;;;;;;2.30;1.43;;;4.80;99.90;;;;;;4976346;28;20465;-90
2021/12/12 12:16:34;;;;;;;1.10;1.00;;;4.80;99.90;;;;;;4972169;28;20455;-90
2021/12/12 12:19:11;;;;;;;1.30;1.17;;;4.90;99.90;;;;;;4965851;28;20946;-89
2021/12/12 12:21:53;;;;;;;2.20;1.60;;;4.90;99.90;;;;;;4978856;28;20474;-87
2021/12/12 12:24:37;;;;;;;2.80;2.00;;;4.90;99.90;;;;;;4974772;28;20454;-92
2021/12/12 12:27:06;;;;;;;2.40;1.50;;;5.00;99.90;;;;;;4974452;28;20942;-91
2021/12/12 12:30:09;;;;;;;1.90;1.13;;;5.00;99.90;;;;;;4934465;28;1133798;-90
2021/12/12 12:33:24;;;;;;;2.10;1.03;;;5.00;99.90;;;;;;4935395;28;20450;-89
2021/12/12 12:36:24;;;;;;;5.37;2.33;;;5.00;99.90;;;;;;4973756;28;20451;-88
2021/12/12 12:39:40;;;;;;;10.30;3.63;;;5.30;99.90;;;;;;4973110;28;20973;-88
2021/12/12 12:42:42;;;;;;;3.97;2.90;;;5.10;99.90;;;;;;4978894;28;20951;-90
2021/12/12 12:45:46;;;;;;;16.20;6.87;;;4.60;99.90;;;;;;4978507;28;20531;-90
2021/12/12 12:48:52;;;;;;;4.03;2.23;;;4.90;99.90;;;;;;4976247;28;20450;-89
2021/12/12 12:51:43;;;;;;;4.27;2.57;;;4.70;99.90;;;;;;4945344;28;20466;-89
2021/12/12 12:54:23;;;;;;;12.30;7.33;;;5.00;99.90;;;;;;4971089;28;20473;-87
2021/12/12 12:57:17;;;;;;;2.87;2.10;;;5.00;99.90;;;;;;4990432;28;20856;-87
2021/12/12 13:00:06;;;;;;;42.67;23.93;;;5.00;99.90;;;;;;4990888;28;20446;-88
2021/12/12 13:02:44;;;;;;;3.20;1.60;;;5.00;99.90;;;;;;4998319;28;20536;-85
2021/12/12 13:05:49;;;;;;;2.40;1.47;;;5.00;99.90;;;;;;4994602;28;20933;-88
2021/12/12 13:09:00;;;;;;;3.77;2.50;;;5.10;99.90;;;;;;4996633;28;20892;-89
2021/12/12 13:11:33;;;;;;;8.53;6.27;;;5.10;99.90;;;;;;4997940;28;20462;-92
2021/12/12 13:14:08;;;;;;;4.37;2.23;;;5.10;99.90;;;;;;4997480;28;20461;-88
2021/12/12 13:16:45;;;;;;;14.90;9.30;;;5.20;99.90;;;;;;4998740;28;21174;-91
2021/12/12 13:19:21;;;;;;;4.90;2.10;;;5.00;99.90;;;;;;4989884;28;20454;-89
2021/12/12 13:22:02;;;;;;;2.57;2.20;;;5.00;99.90;;;;;;4980532;28;20474;-94
2021/12/12 13:24:42;;;;;;;1.00;0.70;;;5.00;99.90;;;;;;4982371;28;20819;-89
2021/12/12 13:27:20;;;;;;;1.33;0.77;;;5.20;99.90;;;;;;4984978;28;20450;-91
2021/12/12 13:30:04;;;;;;;1.50;1.40;;;4.90;99.90;;;;;;4983251;28;20450;-89
2021/12/12 13:32:45;;;;;;;3.70;3.10;;;5.10;99.90;;;;;;4958219;28;20529;-91
2021/12/12 13:35:19;;;;;;;2.23;1.50;;;5.00;99.90;;;;;;4980075;28;20487;-93
2021/12/12 13:38:02;;;;;;;1.03;0.60;;;4.90;99.90;;;;;;4981769;28;20465;-92
2021/12/12 13:40:41;;;;;;;2.30;1.27;;;4.90;99.90;;;;;;4965677;28;20950;-89
2021/12/12 13:43:23;;;;;;;1.50;1.00;;;4.90;99.90;;;;;;4968994;28;20499;-89
2021/12/12 13:45:56;;;;;;;2.13;1.90;;;4.80;99.90;;;;;;4962475;28;20583;-91
2021/12/12 13:48:44;;;;;;;3.60;2.00;;;4.80;99.90;;;;;;4962517;28;20467;-91
2021/12/12 13:51:25;;;;;;;3.27;1.40;;;4.60;99.90;;;;;;4896549;29;20459;-89
2021/12/12 13:54:05;;;;;;;4.03;2.77;;;4.80;99.90;;;;;;4896410;29;20438;-88
2021/12/12 13:56:39;;;;;;;3.90;1.80;;;4.80;99.90;;;;;;4897791;29;20904;-89
2021/12/12 13:59:20;;;;;;;14.33;3.27;;;4.90;99.90;;;;;;4897791;29;20889;-94
2021/12/12 14:02:13;;;;;;;1.70;0.90;;;4.80;99.90;;;;;;4900882;29;20946;-91